Time;durP1;ratioP1;P1;durP2;ratioP2;P2;SDS_P1;SDS_P2;PMS_P1;PMS_P2;Temp;Humidity;BMP_temperature;BMP_pressure;BME280_temperature;BME280_humidity;BME280_pressure;Samples;Min_cycle;Max_cycle;Signal;HPM_P1;HPM_P2
2023/04/09 00:00:37;;;;;;;30.35;20.13;;;7.60;99.90;;;;;;5039244;28;20127;-46
2023/04/09 00:03:03;;;;;;;29.60;19.85;;;7.90;99.90;;;;;;5031950;28;20052;-46
2023/04/09 00:05:28;;;;;;;34.47;21.13;;;7.60;99.90;;;;;;5032366;28;20191;-47
2023/04/09 00:07:54;;;;;;;32.10;21.58;;;7.70;99.90;;;;;;5032461;28;20045;-46
2023/04/09 00:10:20;;;;;;;30.38;20.25;;;8.20;99.90;;;;;;5037072;28;20064;-47
2023/04/09 00:12:46;;;;;;;31.58;21.17;;;7.60;99.90;;;;;;5034165;28;20088;-46
2023/04/09 00:15:12;;;;;;;35.90;21.35;;;8.20;99.90;;;;;;5030778;28;20095;-46
2023/04/09 00:17:37;;;;;;;32.58;20.73;;;7.60;99.90;;;;;;5035063;28;20099;-47
2023/04/09 00:20:04;;;;;;;34.92;22.15;;;7.50;99.90;;;;;;5028216;28;20886;-46
2023/04/09 00:22:30;;;;;;;38.03;22.88;;;7.60;99.90;;;;;;5033114;28;20129;-48
2023/04/09 00:24:56;;;;;;;34.40;23.10;;;8.00;99.90;;;;;;5035112;28;20120;-47
2023/04/09 00:27:22;;;;;;;36.88;22.85;;;7.60;99.90;;;;;;5039656;28;20075;-46
2023/04/09 00:29:47;;;;;;;36.70;23.23;;;8.40;99.90;;;;;;5038713;28;20041;-45
2023/04/09 00:32:13;;;;;;;38.30;21.58;;;7.40;99.90;;;;;;5027540;28;20045;-47
2023/04/09 00:34:39;;;;;;;40.33;24.85;;;7.50;99.90;;;;;;5030361;28;20033;-45
2023/04/09 00:37:05;;;;;;;35.17;23.77;;;8.50;99.90;;;;;;5032631;28;20045;-45
2023/04/09 00:39:31;;;;;;;41.00;23.48;;;8.30;99.90;;;;;;5040269;28;20087;-45
2023/04/09 00:42:03;;;;;;;34.15;22.67;;;7.40;99.90;;;;;;5032620;28;20041;-46
2023/04/09 00:44:29;;;;;;;36.05;23.08;;;7.40;99.90;;;;;;5029162;28;20076;-45
2023/04/09 00:46:55;;;;;;;37.55;24.60;;;8.20;99.90;;;;;;5034319;28;20133;-45
2023/04/09 00:49:23;;;;;;;42.03;26.63;;;7.40;99.90;;;;;;5028108;28;20056;-44
2023/04/09 00:51:49;;;;;;;38.63;24.73;;;7.40;99.90;;;;;;5033080;28;20115;-44
2023/04/09 00:54:15;;;;;;;42.40;26.65;;;7.50;99.90;;;;;;5039608;28;20045;-45
2023/04/09 00:56:41;;;;;;;39.75;25.02;;;7.50;99.90;;;;;;5034538;28;20041;-45
2023/04/09 00:59:07;;;;;;;42.58;25.27;;;7.50;99.90;;;;;;5034140;28;20040;-45
2023/04/09 01:01:33;;;;;;;40.20;25.90;;;7.30;99.90;;;;;;5032503;28;20422;-45
2023/04/09 01:03:59;;;;;;;39.72;25.70;;;7.40;99.90;;;;;;5029058;28;20076;-44
2023/04/09 01:06:50;;;;;;;39.97;24.38;;;7.30;99.90;;;;;;5031730;28;20045;-45
2023/04/09 01:09:19;;;;;;;39.78;25.80;;;7.40;99.90;;;;;;5032895;28;20085;-44
2023/04/09 01:12:14;;;;;;;44.30;27.20;;;7.40;99.90;;;;;;5028182;28;20503;-45
2023/04/09 01:15:02;;;;;;;39.08;25.52;;;7.40;99.90;;;;;;5030366;28;20436;-45
2023/04/09 01:17:45;;;;;;;41.42;26.63;;;7.50;99.90;;;;;;5033189;28;20411;-45
2023/04/09 01:20:21;;;;;;;42.45;27.13;;;7.40;99.90;;;;;;5031310;28;20095;-45
2023/04/09 01:23:05;;;;;;;39.05;25.98;;;7.40;99.90;;;;;;5037500;28;20084;-45
2023/04/09 01:25:43;;;;;;;43.67;27.52;;;7.40;99.90;;;;;;5033623;28;20048;-45
2023/04/09 01:28:19;;;;;;;44.03;27.45;;;7.30;99.90;;;;;;5027773;28;20064;-45
2023/04/09 01:30:49;;;;;;;44.85;27.50;;;7.30;99.90;;;;;;5036891;28;20041;-48
2023/04/09 01:33:17;;;;;;;39.92;26.38;;;7.90;99.90;;;;;;5030393;28;20045;-44
2023/04/09 01:35:46;;;;;;;43.15;26.20;;;7.90;99.90;;;;;;5029396;28;20052;-45
2023/04/09 01:38:13;;;;;;;43.80;26.58;;;7.20;99.90;;;;;;5035468;28;20399;-45
2023/04/09 01:40:40;;;;;;;44.22;28.33;;;7.90;99.90;;;;;;5030132;28;20143;-44
2023/04/09 01:43:07;;;;;;;47.92;28.92;;;7.80;99.90;;;;;;5028457;28;20047;-44
2023/04/09 01:45:33;;;;;;;44.78;26.23;;;7.30;99.90;;;;;;5038486;28;20364;-45
2023/04/09 01:47:59;;;;;;;46.20;27.83;;;7.10;99.90;;;;;;5034276;28;20045;-45
2023/04/09 01:50:25;;;;;;;49.47;29.95;;;7.00;99.90;;;;;;5030102;28;20046;-45
2023/04/09 01:52:51;;;;;;;43.92;27.52;;;7.30;99.90;;;;;;5037693;28;20038;-45
2023/04/09 01:55:17;;;;;;;50.72;29.02;;;7.10;99.90;;;;;;5029917;28;20037;-44
2023/04/09 01:57:43;;;;;;;49.17;27.92;;;7.00;99.90;;;;;;5031662;28;20518;-46
2023/04/09 02:00:09;;;;;;;50.25;28.40;;;7.20;99.90;;;;;;5028971;28;20592;-44
2023/04/09 02:02:59;;;;;;;48.60;28.52;;;7.00;99.90;;;;;;5037520;28;20049;-45
2023/04/09 02:05:30;;;;;;;51.47;29.60;;;7.10;99.90;;;;;;5030466;28;20051;-45
2023/04/09 02:07:58;;;;;;;50.33;29.35;;;7.30;99.90;;;;;;5027971;28;20060;-45
2023/04/09 02:10:26;;;;;;;54.47;29.73;;;7.40;99.90;;;;;;5030916;28;20057;-45
2023/04/09 02:12:54;;;;;;;52.60;29.65;;;7.50;99.90;;;;;;5041478;28;20589;-44
2023/04/09 02:15:21;;;;;;;51.22;28.88;;;7.90;99.90;;;;;;5038122;28;20525;-44
2023/04/09 02:17:47;;;;;;;52.70;30.00;;;7.50;99.90;;;;;;5042486;28;20056;-45
2023/04/09 02:20:19;;;;;;;52.47;30.27;;;6.80;99.90;;;;;;5036174;28;20041;-47
2023/04/09 02:22:45;;;;;;;52.28;30.88;;;7.10;99.90;;;;;;5026650;28;20133;-45
2023/04/09 02:25:11;;;;;;;54.92;30.73;;;6.90;99.90;;;;;;5027156;28;20065;-44
2023/04/09 02:27:37;;;;;;;51.75;29.25;;;7.40;99.90;;;;;;5026916;28;20045;-46
2023/04/09 02:30:03;;;;;;;51.22;28.27;;;6.90;99.90;;;;;;5032387;28;20042;-45
2023/04/09 02:32:28;;;;;;;53.85;32.55;;;6.60;99.90;;;;;;5028406;28;20037;-45
2023/04/09 02:34:54;;;;;;;51.58;30.40;;;5.40;99.90;;;;;;5037377;28;20038;-45
2023/04/09 02:37:20;;;;;;;54.50;29.52;;;7.80;99.90;;;;;;5026104;28;20084;-44
2023/04/09 02:39:45;;;;;;;57.47;31.20;;;6.90;99.90;;;;;;5035556;28;20049;-45
2023/04/09 02:42:11;;;;;;;54.72;30.90;;;7.10;99.90;;;;;;5035359;28;20063;-44
2023/04/09 02:44:36;;;;;;;59.72;31.05;;;7.00;99.90;;;;;;5035242;28;20045;-45
2023/04/09 02:47:02;;;;;;;56.83;32.88;;;7.40;99.90;;;;;;5030046;28;20499;-45
2023/04/09 02:49:28;;;;;;;56.92;32.42;;;7.30;99.90;;;;;;5030621;28;20717;-44
2023/04/09 02:51:53;;;;;;;55.50;31.88;;;8.00;99.90;;;;;;5037562;28;20815;-44
2023/04/09 02:54:19;;;;;;;54.25;29.70;;;7.00;99.90;;;;;;5036656;28;20123;-44
2023/04/09 02:56:45;;;;;;;55.33;32.03;;;7.00;99.90;;;;;;5036176;28;20044;-44
2023/04/09 02:59:10;;;;;;;55.90;32.58;;;6.60;99.90;;;;;;5030650;28;20076;-44
2023/04/09 03:01:36;;;;;;;55.53;31.30;;;6.90;99.90;;;;;;5033796;28;20077;-44
2023/04/09 03:04:02;;;;;;;51.70;30.38;;;7.50;99.90;;;;;;5035634;28;20033;-44
2023/04/09 03:06:27;;;;;;;53.90;30.27;;;8.10;99.90;;;;;;5033529;28;20550;-45
2023/04/09 03:08:53;;;;;;;55.35;30.90;;;6.90;99.90;;;;;;5038630;28;20106;-44
2023/04/09 03:11:19;;;;;;;54.00;30.85;;;7.60;99.90;;;;;;5033275;28;20115;-45
2023/04/09 03:13:44;;;;;;;51.97;29.58;;;6.90;99.90;;;;;;5029676;28;20725;-46
2023/04/09 03:16:10;;;;;;;55.55;32.03;;;7.40;99.90;;;;;;5033850;28;20056;-45
2023/04/09 03:18:36;;;;;;;58.47;30.95;;;7.60;99.90;;;;;;5037660;28;20037;-45
2023/04/09 03:21:08;;;;;;;55.70;29.98;;;7.10;99.90;;;;;;5036119;28;20128;-44
2023/04/09 03:23:34;;;;;;;53.50;29.73;;;6.70;99.90;;;;;;5028630;28;21201;-44
2023/04/09 03:26:01;;;;;;;53.13;31.52;;;7.10;99.90;;;;;;5027731;28;20045;-44
2023/04/09 03:28:27;;;;;;;53.10;30.00;;;7.10;99.90;;;;;;5037133;28;20041;-45
2023/04/09 03:30:52;;;;;;;54.72;31.23;;;7.10;99.90;;;;;;5034943;28;20156;-45
2023/04/09 03:33:18;;;;;;;53.90;30.50;;;7.10;99.90;;;;;;5038692;28;20041;-45
2023/04/09 03:35:44;;;;;;;55.55;29.92;;;7.00;99.90;;;;;;5037167;28;20032;-45
2023/04/09 03:38:09;;;;;;;51.65;30.30;;;7.40;99.90;;;;;;5035551;28;20045;-45
2023/04/09 03:40:35;;;;;;;54.88;31.13;;;7.30;99.90;;;;;;5037592;28;20033;-45
2023/04/09 03:43:01;;;;;;;50.92;29.77;;;7.50;99.90;;;;;;5039037;28;20114;-45
2023/04/09 03:45:28;;;;;;;53.83;30.65;;;7.40;99.90;;;;;;5031992;28;20091;-45
2023/04/09 03:47:54;;;;;;;52.03;29.25;;;6.50;99.90;;;;;;5036481;28;20463;-45
2023/04/09 03:50:20;;;;;;;51.33;29.95;;;6.60;99.90;;;;;;5031839;28;20520;-46
2023/04/09 03:52:46;;;;;;;50.17;29.63;;;7.40;99.90;;;;;;5028750;28;20628;-45
2023/04/09 03:55:11;;;;;;;52.08;30.77;;;7.30;99.90;;;;;;5035565;28;20364;-44
2023/04/09 03:57:37;;;;;;;53.40;30.92;;;7.70;99.90;;;;;;5039173;28;20037;-45
2023/04/09 04:00:03;;;;;;;53.10;29.67;;;6.80;99.90;;;;;;5027706;28;20048;-44
2023/04/09 04:02:32;;;;;;;51.10;29.25;;;6.60;99.90;;;;;;5039554;28;20053;-46
2023/04/09 04:04:58;;;;;;;50.78;30.48;;;6.90;99.90;;;;;;5032929;28;20156;-45
2023/04/09 04:07:24;;;;;;;52.08;31.35;;;7.20;99.90;;;;;;5031521;28;20053;-46
2023/04/09 04:09:50;;;;;;;52.10;29.60;;;6.90;99.90;;;;;;5034692;28;20381;-45
2023/04/09 04:12:16;;;;;;;55.83;30.92;;;6.80;99.90;;;;;;5030212;28;20797;-45
2023/04/09 04:14:41;;;;;;;54.75;31.60;;;7.20;99.90;;;;;;5038480;28;20049;-44
2023/04/09 04:17:07;;;;;;;57.85;31.92;;;7.50;99.90;;;;;;5035885;28;20163;-45
2023/04/09 04:19:33;;;;;;;56.00;31.30;;;7.70;99.90;;;;;;5029661;28;20706;-46
2023/04/09 04:21:58;;;;;;;52.42;30.77;;;7.60;99.90;;;;;;5032664;28;20049;-45
2023/04/09 04:24:24;;;;;;;51.30;29.98;;;7.00;99.90;;;;;;5029442;28;20045;-45
2023/04/09 04:26:50;;;;;;;53.63;31.88;;;7.70;99.90;;;;;;5042311;28;20060;-45
2023/04/09 04:29:16;;;;;;;62.75;34.47;;;6.70;99.90;;;;;;5034003;28;20135;-45
2023/04/09 04:31:41;;;;;;;56.10;32.70;;;7.00;99.90;;;;;;5032682;28;20057;-45
2023/04/09 04:34:07;;;;;;;60.88;34.38;;;7.00;99.90;;;;;;5038012;28;20073;-46
2023/04/09 04:36:33;;;;;;;62.58;35.03;;;7.10;99.90;;;;;;5032268;28;20118;-45
2023/04/09 04:38:58;;;;;;;64.60;35.22;;;6.90;99.90;;;;;;5033301;28;20166;-46
2023/04/09 04:41:24;;;;;;;60.60;34.55;;;7.10;99.90;;;;;;5033320;28;20127;-45
2023/04/09 04:43:49;;;;;;;63.78;35.78;;;7.80;99.90;;;;;;5039366;28;20056;-48
2023/04/09 04:46:15;;;;;;;61.85;35.03;;;6.80;99.90;;;;;;5035110;28;20052;-45
2023/04/09 04:48:41;;;;;;;68.65;35.55;;;6.70;99.90;;;;;;5026429;28;20048;-46
2023/04/09 04:51:06;;;;;;;60.25;34.50;;;7.10;99.90;;;;;;5032695;28;20033;-44
2023/04/09 04:53:32;;;;;;;64.63;34.90;;;7.20;99.90;;;;;;5032879;28;20102;-45
2023/04/09 04:55:59;;;;;;;69.53;36.17;;;7.00;99.90;;;;;;5032813;28;20087;-45
2023/04/09 04:58:25;;;;;;;65.18;34.40;;;7.70;99.90;;;;;;5030339;28;20507;-44
2023/04/09 05:00:50;;;;;;;60.15;35.42;;;7.00;99.90;;;;;;5038457;28;20139;-45
2023/04/09 05:03:16;;;;;;;54.38;30.50;;;7.00;99.90;;;;;;5029562;28;20041;-45
2023/04/09 05:05:42;;;;;;;59.00;34.10;;;7.50;99.90;;;;;;5034846;28;20155;-45
2023/04/09 05:08:07;;;;;;;48.08;29.00;;;7.30;99.90;;;;;;5038538;28;20049;-44
2023/04/09 05:10:33;;;;;;;47.92;28.45;;;7.70;99.90;;;;;;5034165;28;20057;-45
2023/04/09 05:12:59;;;;;;;41.75;26.10;;;7.00;99.90;;;;;;5031042;28;20047;-44
2023/04/09 05:15:25;;;;;;;43.97;26.90;;;7.10;99.90;;;;;;5032967;28;20057;-45
2023/04/09 05:17:50;;;;;;;41.95;27.13;;;7.20;99.90;;;;;;5030618;28;20072;-48
2023/04/09 05:20:16;;;;;;;42.72;25.88;;;7.10;99.90;;;;;;5026394;28;20041;-44
2023/04/09 05:22:42;;;;;;;41.10;26.05;;;7.40;99.90;;;;;;5038477;28;20049;-46
2023/04/09 05:25:09;;;;;;;42.42;26.83;;;7.20;99.90;;;;;;5038467;28;20083;-46
2023/04/09 05:27:34;;;;;;;41.25;26.38;;;6.90;99.90;;;;;;5030348;28;20045;-44
2023/04/09 05:30:00;;;;;;;45.63;26.55;;;6.90;99.90;;;;;;5028993;28;20076;-44
2023/04/09 05:32:26;;;;;;;42.72;27.63;;;7.80;99.90;;;;;;5028849;28;20041;-45
2023/04/09 05:34:52;;;;;;;41.58;27.55;;;6.90;99.90;;;;;;5031974;28;20053;-46
2023/04/09 05:37:17;;;;;;;46.33;27.30;;;8.00;99.90;;;;;;5028164;28;20046;-44
2023/04/09 05:39:43;;;;;;;50.90;29.45;;;7.20;99.90;;;;;;5033153;28;20048;-44
2023/04/09 05:42:09;;;;;;;46.67;29.98;;;7.30;99.90;;;;;;5026580;28;20048;-45
2023/04/09 05:44:34;;;;;;;54.72;32.80;;;7.40;99.90;;;;;;5026943;28;20050;-45
2023/04/09 05:47:00;;;;;;;58.67;34.80;;;7.50;99.90;;;;;;5033096;28;20132;-48
2023/04/09 05:49:26;;;;;;;57.05;35.53;;;7.00;99.90;;;;;;5028857;28;20128;-44
2023/04/09 05:51:55;;;;;;;61.17;35.97;;;7.90;99.90;;;;;;5025638;28;20175;-44
2023/04/09 05:54:21;;;;;;;59.63;36.65;;;7.50;99.90;;;;;;5026668;28;20057;-46
2023/04/09 05:56:47;;;;;;;58.67;35.17;;;7.50;99.90;;;;;;5032493;28;20045;-45
2023/04/09 05:59:12;;;;;;;53.63;34.03;;;7.40;99.90;;;;;;5027805;28;20076;-46
2023/04/09 06:01:38;;;;;;;59.78;34.55;;;7.60;99.90;;;;;;5034647;28;20114;-44
2023/04/09 06:04:04;;;;;;;54.58;32.88;;;7.50;99.90;;;;;;5026958;28;20049;-45
2023/04/09 06:06:29;;;;;;;52.90;31.27;;;7.60;99.90;;;;;;5026524;28;20060;-45
2023/04/09 06:08:55;;;;;;;52.50;31.67;;;7.50;99.90;;;;;;5032524;28;20053;-46
2023/04/09 06:11:21;;;;;;;52.35;31.17;;;7.80;99.90;;;;;;5034022;28;20068;-45
2023/04/09 06:13:47;;;;;;;48.08;29.50;;;8.40;99.90;;;;;;5031024;28;20093;-45
2023/04/09 06:16:13;;;;;;;49.95;29.25;;;7.90;99.90;;;;;;5036533;28;20080;-44
2023/04/09 06:18:38;;;;;;;52.75;28.63;;;7.50;99.90;;;;;;5030978;28;20037;-44
2023/04/09 06:21:05;;;;;;;47.40;30.17;;;7.90;99.90;;;;;;5029874;28;20044;-46
2023/04/09 06:23:33;;;;;;;49.10;29.48;;;7.80;99.90;;;;;;5032944;28;20498;-44
2023/04/09 06:25:59;;;;;;;46.55;28.58;;;8.30;99.90;;;;;;5035536;28;20540;-47
2023/04/09 06:28:25;;;;;;;52.10;30.17;;;8.40;99.90;;;;;;5034832;28;20056;-45
2023/04/09 06:30:52;;;;;;;47.58;28.38;;;8.60;99.90;;;;;;5036839;28;20043;-45
2023/04/09 06:33:19;;;;;;;51.42;31.88;;;9.00;99.90;;;;;;5036459;28;20060;-45
2023/04/09 06:35:45;;;;;;;48.22;29.30;;;9.30;99.90;;;;;;5032194;28;20044;-45
2023/04/09 06:38:10;;;;;;;45.40;28.35;;;9.80;99.90;;;;;;5041664;28;20056;-47
2023/04/09 06:40:37;;;;;;;45.33;28.63;;;9.90;99.90;;;;;;5037733;28;20533;-45
2023/04/09 06:43:04;;;;;;;39.90;26.63;;;11.10;99.90;;;;;;5033028;28;20111;-44
2023/04/09 06:45:31;;;;;;;40.80;27.45;;;11.00;99.90;;;;;;5035650;28;20734;-46
2023/04/09 06:47:59;;;;;;;41.05;28.17;;;11.20;99.90;;;;;;5037435;28;20045;-46
2023/04/09 06:50:25;;;;;;;39.50;26.85;;;11.30;99.90;;;;;;5029913;28;20038;-45
2023/04/09 06:52:51;;;;;;;38.72;26.38;;;11.60;99.90;;;;;;5036892;28;20522;-45
2023/04/09 06:55:17;;;;;;;39.55;25.20;;;11.80;99.90;;;;;;5037848;28;20045;-45
2023/04/09 06:57:43;;;;;;;40.05;25.73;;;11.80;99.90;;;;;;5036935;28;20506;-46
2023/04/09 07:00:09;;;;;;;37.67;24.20;;;11.70;99.90;;;;;;5028403;28;20107;-45
2023/04/09 07:02:35;;;;;;;40.05;25.88;;;11.70;99.90;;;;;;5028782;28;20045;-45
2023/04/09 07:05:02;;;;;;;40.72;26.38;;;11.60;99.90;;;;;;5036140;28;20128;-45
2023/04/09 07:07:28;;;;;;;36.22;25.52;;;11.60;99.90;;;;;;5038747;28;20128;-44
2023/04/09 07:09:54;;;;;;;36.40;25.08;;;11.30;99.90;;;;;;5038314;28;20061;-45
2023/04/09 07:12:30;;;;;;;36.00;25.65;;;11.20;99.90;;;;;;5037355;28;20053;-45
2023/04/09 07:14:59;;;;;;;39.65;25.30;;;11.30;99.90;;;;;;5034575;28;20144;-45
2023/04/09 07:17:25;;;;;;;41.00;26.63;;;11.20;99.90;;;;;;5030826;28;20116;-45
2023/04/09 07:19:52;;;;;;;40.42;26.15;;;11.10;99.90;;;;;;5029105;28;20666;-45
2023/04/09 07:22:20;;;;;;;36.92;25.77;;;11.20;99.90;;;;;;5035805;28;20041;-45
2023/04/09 07:24:45;;;;;;;38.67;25.13;;;11.20;99.90;;;;;;5034277;28;20132;-44
2023/04/09 07:27:11;;;;;;;36.08;24.33;;;11.30;99.90;;;;;;5028282;28;20742;-44
2023/04/09 07:29:37;;;;;;;35.85;25.13;;;11.60;99.90;;;;;;5034053;28;20045;-46
2023/04/09 07:32:03;;;;;;;38.38;25.40;;;11.40;99.90;;;;;;5035401;28;20079;-45
2023/04/09 07:34:28;;;;;;;33.88;24.50;;;11.70;99.90;;;;;;5030477;28;20048;-46
2023/04/09 07:36:54;;;;;;;36.50;24.88;;;11.60;99.90;;;;;;5029305;28;20050;-45
2023/04/09 07:39:21;;;;;;;38.80;25.75;;;12.10;99.90;;;;;;5030968;28;20053;-45
2023/04/09 07:41:47;;;;;;;36.10;24.15;;;11.80;99.90;;;;;;5031455;28;20135;-45
2023/04/09 07:44:13;;;;;;;37.70;24.20;;;11.70;99.90;;;;;;5043647;28;20433;-45
2023/04/09 07:46:40;;;;;;;34.15;22.98;;;11.80;99.90;;;;;;5041325;28;20049;-45
2023/04/09 07:49:05;;;;;;;32.28;23.73;;;11.80;99.90;;;;;;5029740;28;20037;-44
2023/04/09 07:51:31;;;;;;;31.77;23.33;;;12.00;99.90;;;;;;5034824;28;20151;-47
2023/04/09 07:53:57;;;;;;;37.65;24.25;;;11.90;99.90;;;;;;5031327;28;20625;-46
2023/04/09 07:56:23;;;;;;;34.30;23.92;;;11.90;99.90;;;;;;5033124;28;20045;-45
2023/04/09 07:58:49;;;;;;;33.05;22.38;;;11.90;99.90;;;;;;5031493;28;20045;-46
2023/04/09 08:01:15;;;;;;;33.33;23.50;;;12.10;99.90;;;;;;5033964;28;20068;-45
2023/04/09 08:03:41;;;;;;;34.13;24.30;;;12.10;99.90;;;;;;5036768;28;20110;-46
2023/04/09 08:06:07;;;;;;;35.83;24.65;;;12.20;99.90;;;;;;5029784;28;20773;-45
2023/04/09 08:08:33;;;;;;;35.20;22.80;;;12.30;99.90;;;;;;5030430;28;20049;-45
2023/04/09 08:10:59;;;;;;;35.05;23.27;;;12.60;99.90;;;;;;5033550;28;20061;-46
2023/04/09 08:13:24;;;;;;;33.30;24.25;;;12.80;99.90;;;;;;5040526;28;20057;-46
2023/04/09 08:15:50;;;;;;;33.22;23.67;;;12.90;99.90;;;;;;5040927;28;20029;-46
2023/04/09 08:18:16;;;;;;;33.50;22.70;;;13.10;99.90;;;;;;5027118;28;20064;-46
2023/04/09 08:20:43;;;;;;;31.33;22.83;;;13.20;99.90;;;;;;5014045;28;20060;-46
2023/04/09 08:23:12;;;;;;;33.63;25.05;;;13.40;99.90;;;;;;5014048;28;20038;-49
2023/04/09 08:25:38;;;;;;;31.52;22.50;;;13.70;99.90;;;;;;5013843;28;20045;-45
2023/04/09 08:28:04;;;;;;;35.70;25.75;;;14.10;99.90;;;;;;5010993;28;20713;-47
2023/04/09 08:30:32;;;;;;;38.28;24.98;;;15.50;97.90;;;;;;5014815;28;20044;-49
2023/04/09 08:32:59;;;;;;;35.20;23.75;;;15.70;97.50;;;;;;5011590;28;20046;-45
2023/04/09 08:35:25;;;;;;;31.02;22.83;;;16.50;96.40;;;;;;5009435;28;20037;-49
2023/04/09 08:37:51;;;;;;;31.00;24.77;;;16.40;96.10;;;;;;5012461;28;20114;-46
2023/04/09 08:40:16;;;;;;;31.30;24.13;;;16.50;95.80;;;;;;5012950;28;20154;-46
2023/04/09 08:42:46;;;;;;;31.52;23.80;;;17.50;93.30;;;;;;5014037;28;20034;-48
2023/04/09 08:45:12;;;;;;;31.00;24.42;;;17.70;93.70;;;;;;5027651;28;20116;-46
2023/04/09 08:47:40;;;;;;;31.55;24.30;;;18.00;92.80;;;;;;5024943;28;20056;-46
2023/04/09 08:50:06;;;;;;;31.10;23.70;;;18.00;90.60;;;;;;5023879;28;20742;-47
2023/04/09 08:52:33;;;;;;;32.85;25.45;;;18.30;90.60;;;;;;5023284;28;20079;-47
2023/04/09 08:54:59;;;;;;;33.55;25.65;;;18.30;90.40;;;;;;5023280;28;20407;-46
2023/04/09 08:57:25;;;;;;;33.17;24.35;;;18.80;91.90;;;;;;5025007;28;20040;-46
2023/04/09 08:59:51;;;;;;;32.58;24.67;;;19.00;89.10;;;;;;5026450;28;20674;-46
2023/04/09 09:02:16;;;;;;;31.77;24.50;;;18.70;89.10;;;;;;5024524;28;20045;-47
2023/04/09 09:04:47;;;;;;;31.63;25.13;;;18.50;90.10;;;;;;5025437;28;20476;-46
2023/04/09 09:07:13;;;;;;;32.60;25.23;;;18.30;88.80;;;;;;5024472;28;20045;-51
2023/04/09 09:09:52;;;;;;;31.42;24.90;;;18.20;89.20;;;;;;4984001;28;20676;-55
2023/04/09 09:12:30;;;;;;;30.30;24.77;;;18.40;89.30;;;;;;4983165;28;20921;-56
2023/04/09 09:14:56;;;;;;;30.92;24.42;;;19.50;88.30;;;;;;5002956;28;20037;-55
2023/04/09 09:17:22;;;;;;;30.80;24.15;;;20.50;84.40;;;;;;5001536;28;20111;-56
2023/04/09 09:19:54;;;;;;;26.27;22.70;;;20.70;80.70;;;;;;5013881;28;20038;-56
2023/04/09 09:22:19;;;;;;;;;;;21.20;78.60;;;;;;5020208;28;20071;-58
2023/04/09 09:24:57;;;;;;;28.77;24.35;;;20.80;78.20;;;;;;5020269;28;20592;-53
2023/04/09 09:27:35;;;;;;;30.27;24.88;;;21.00;74.50;;;;;;5015402;28;20128;-58
2023/04/09 09:30:21;;;;;;;27.63;23.08;;;21.50;76.20;;;;;;5015452;28;20037;-58
2023/04/09 09:33:20;;;;;;;28.20;23.45;;;21.70;73.70;;;;;;5009453;28;20032;-50
2023/04/09 09:36:09;;;;;;;26.77;23.10;;;22.00;74.40;;;;;;4966684;28;20639;-51
2023/04/09 09:38:53;;;;;;;30.05;23.83;;;22.10;72.20;;;;;;4973666;28;20056;-56
2023/04/09 09:41:22;;;;;;;28.90;23.45;;;21.50;72.10;;;;;;4989559;28;21427;-48
2023/04/09 09:44:02;;;;;;;29.08;23.08;;;21.50;73.70;;;;;;4995891;28;20811;-51
2023/04/09 09:46:37;;;;;;;28.40;23.52;;;21.50;71.60;;;;;;4990832;28;20891;-46
2023/04/09 09:49:03;;;;;;;25.67;22.77;;;21.40;72.50;;;;;;4974562;28;20037;-52
2023/04/09 09:51:31;;;;;;;28.42;23.40;;;21.10;73.60;;;;;;4977141;28;20041;-50
2023/04/09 09:53:57;;;;;;;26.65;22.90;;;21.00;73.20;;;;;;4976851;28;20037;-49
2023/04/09 09:56:31;;;;;;;26.95;22.77;;;20.70;74.10;;;;;;4967017;28;20053;-50
2023/04/09 09:59:20;;;;;;;27.23;22.55;;;20.20;73.50;;;;;;4976557;28;20776;-48
2023/04/09 10:01:47;;;;;;;28.63;23.42;;;19.30;72.50;;;;;;5001817;28;20080;-45
2023/04/09 10:04:17;;;;;;;27.80;23.02;;;18.80;75.70;;;;;;4993911;28;20443;-48
2023/04/09 10:06:44;;;;;;;28.88;24.55;;;18.50;76.30;;;;;;4995485;28;20037;-48
2023/04/09 10:09:22;;;;;;;26.05;21.17;;;18.40;76.80;;;;;;4979952;28;20782;-48
2023/04/09 10:11:48;;;;;;;25.92;20.25;;;18.10;76.90;;;;;;4990590;28;20053;-48
2023/04/09 10:14:25;;;;;;;27.77;21.42;;;18.20;76.70;;;;;;5007297;28;20033;-48
2023/04/09 10:16:51;;;;;;;25.02;21.15;;;18.80;75.80;;;;;;5008823;28;20069;-47
2023/04/09 10:19:17;;;;;;;24.00;20.35;;;19.20;75.60;;;;;;5013657;28;20463;-47
2023/04/09 10:22:24;;;;;;;23.63;20.25;;;19.70;73.50;;;;;;4993895;28;20037;-48
2023/04/09 10:24:51;;;;;;;22.23;19.42;;;19.90;73.40;;;;;;4929983;28;20046;-44
2023/04/09 10:27:17;;;;;;;25.92;20.13;;;19.90;73.40;;;;;;4946974;28;20045;-49
2023/04/09 10:29:45;;;;;;;23.88;19.63;;;19.50;74.30;;;;;;4982623;28;20041;-51
2023/04/09 10:32:22;;;;;;;23.92;19.88;;;19.60;74.80;;;;;;5020249;28;20156;-53
2023/04/09 10:34:51;;;;;;;21.95;18.30;;;20.20;73.50;;;;;;4980416;28;20212;-53
2023/04/09 10:37:22;;;;;;;24.17;19.75;;;20.50;72.20;;;;;;4997392;28;20036;-53
2023/04/09 10:39:50;;;;;;;23.10;19.48;;;20.60;70.50;;;;;;5013501;28;20072;-49
2023/04/09 10:42:28;;;;;;;26.75;20.70;;;20.40;69.90;;;;;;5009827;28;20079;-51
2023/04/09 10:45:13;;;;;;;22.90;19.92;;;20.00;70.00;;;;;;4973928;28;20034;-50
2023/04/09 10:47:54;;;;;;;23.45;19.67;;;19.50;72.10;;;;;;5010567;28;20075;-56
2023/04/09 10:50:32;;;;;;;24.80;20.50;;;18.90;72.10;;;;;;4987322;28;20044;-44
2023/04/09 10:52:59;;;;;;;27.67;21.63;;;18.60;72.50;;;;;;4981179;28;20030;-46
2023/04/09 10:55:35;;;;;;;27.00;22.08;;;18.30;73.60;;;;;;4967760;28;20115;-46
2023/04/09 10:58:20;;;;;;;25.65;20.65;;;17.90;74.30;;;;;;4996929;28;20130;-44
2023/04/09 11:00:48;;;;;;;24.95;19.88;;;17.80;75.30;;;;;;4980412;28;21056;-49
2023/04/09 11:03:20;;;;;;;25.40;19.83;;;17.60;75.40;;;;;;4967543;28;20625;-51
2023/04/09 11:05:54;;;;;;;26.95;20.63;;;17.40;76.00;;;;;;4986164;28;20124;-53
2023/04/09 11:08:20;;;;;;;24.27;19.45;;;17.30;77.20;;;;;;4972509;28;20645;-46
2023/04/09 11:10:46;;;;;;;27.13;20.83;;;17.20;77.40;;;;;;4971602;28;20084;-44
2023/04/09 11:13:18;;;;;;;26.17;21.20;;;17.10;77.10;;;;;;4975240;28;20041;-46
2023/04/09 11:15:44;;;;;;;28.42;22.00;;;16.90;76.90;;;;;;5002050;28;20044;-45
2023/04/09 11:18:18;;;;;;;26.50;21.67;;;16.60;77.40;;;;;;5012678;28;20136;-46
2023/04/09 11:20:57;;;;;;;25.35;21.63;;;16.40;77.60;;;;;;4999642;28;20053;-45
2023/04/09 11:23:24;;;;;;;26.10;21.15;;;16.40;80.10;;;;;;4999336;28;20057;-45
2023/04/09 11:25:50;;;;;;;25.77;20.45;;;16.10;79.40;;;;;;5007205;28;20052;-51
2023/04/09 11:28:16;;;;;;;25.30;19.63;;;16.10;79.90;;;;;;4998730;28;20045;-46
2023/04/09 11:30:42;;;;;;;25.55;20.55;;;16.00;80.70;;;;;;5020401;28;20099;-45
2023/04/09 11:33:18;;;;;;;24.33;19.75;;;15.90;80.90;;;;;;5017059;28;20076;-45
2023/04/09 11:35:44;;;;;;;25.27;20.08;;;15.90;82.00;;;;;;4999223;28;20041;-46
2023/04/09 11:38:10;;;;;;;23.40;18.05;;;16.00;82.20;;;;;;4999320;28;20392;-47
2023/04/09 11:40:46;;;;;;;22.17;18.00;;;16.00;81.40;;;;;;4992461;28;20107;-47
2023/04/09 11:43:15;;;;;;;23.25;19.42;;;16.00;79.90;;;;;;5007538;28;20484;-49
2023/04/09 11:45:41;;;;;;;23.63;19.35;;;15.90;80.30;;;;;;4999900;28;20791;-50
2023/04/09 11:48:22;;;;;;;23.52;19.15;;;16.00;80.70;;;;;;4979713;28;20666;-48
2023/04/09 11:50:48;;;;;;;24.05;19.73;;;16.00;80.40;;;;;;4984527;28;20530;-51
2023/04/09 11:53:21;;;;;;;19.63;15.77;;;16.00;80.50;;;;;;5000487;28;20551;-54
2023/04/09 11:55:50;;;;;;;19.40;15.77;;;16.20;78.10;;;;;;4990880;28;20084;-45
2023/04/09 11:58:16;;;;;;;21.48;16.80;;;16.20;78.90;;;;;;4982471;28;20562;-56
2023/04/09 12:00:42;;;;;;;23.10;17.23;;;;;;;;;;4972770;28;20084;-47
2023/04/09 12:03:09;;;;;;;19.27;14.77;;;16.40;77.90;;;;;;4983937;28;21936;-44
2023/04/09 12:05:35;;;;;;;20.40;15.35;;;16.40;78.40;;;;;;4973726;28;20045;-43
2023/04/09 12:08:07;;;;;;;21.77;16.73;;;16.10;83.00;;;;;;4948897;28;20041;-48
2023/04/09 12:10:37;;;;;;;;;;;16.00;77.30;;;;;;4939246;28;20124;-45
2023/04/09 12:13:09;;;;;;;23.58;16.42;;;15.90;78.20;;;;;;4971238;28;19924;-46
2023/04/09 12:15:42;;;;;;;20.80;15.60;;;15.70;77.90;;;;;;5006817;28;20033;-49
2023/04/09 12:18:09;;;;;;;16.35;12.48;;;15.70;78.30;;;;;;5008353;28;20045;-45
2023/04/09 12:20:46;;;;;;;16.02;12.70;;;15.60;77.40;;;;;;4998902;28;20068;-45
2023/04/09 12:23:27;;;;;;;16.75;13.90;;;15.40;76.30;;;;;;5004289;28;20122;-46
2023/04/09 12:25:54;;;;;;;17.42;12.70;;;15.40;75.50;;;;;;5030688;28;20043;-49
2023/04/09 12:28:20;;;;;;;16.88;12.73;;;15.30;76.50;;;;;;5013779;28;20191;-47
2023/04/09 12:30:47;;;;;;;16.70;13.65;;;15.10;76.90;;;;;;5030500;28;20526;-56
2023/04/09 12:33:12;;;;;;;16.10;12.65;;;14.90;76.80;;;;;;4998525;28;20060;-59
2023/04/09 12:35:38;;;;;;;19.27;13.13;;;14.90;76.60;;;;;;5019828;28;20423;-56
2023/04/09 12:38:04;;;;;;;17.25;13.48;;;14.80;77.50;;;;;;5017818;28;20026;-56